Time;durP1;ratioP1;P1;durP2;ratioP2;P2;SDS_P1;SDS_P2;PMS_P1;PMS_P2;Temp;Humidity;BMP_temperature;BMP_pressure;BME280_temperature;BME280_humidity;BME280_pressure;Samples;Min_cycle;Max_cycle;Signal;HPM_P1;HPM_P2
2023/05/06 00:01:56;;;;;;;10.23;4.72;;;;;;;;;;5048758;28;20029;-70
2023/05/06 00:04:21;;;;;;;9.30;4.57;;;;;;;;;;5052175;28;20499;-72
2023/05/06 00:06:47;;;;;;;9.13;4.90;;;;;;;;;;5044193;28;20478;-71
2023/05/06 00:09:12;;;;;;;10.05;4.88;;;;;;;;;;5046006;28;20451;-70
2023/05/06 00:11:37;;;;;;;9.20;4.90;;;;;;;;;;5040118;28;20025;-70
2023/05/06 00:14:03;;;;;;;9.93;4.93;;;;;;;;;;5044083;28;20052;-74
2023/05/06 00:16:28;;;;;;;8.53;5.17;;;;;;;;;;5043510;28;20043;-70
2023/05/06 00:18:53;;;;;;;9.10;5.05;;;;;;;;;;5045009;28;20503;-71
2023/05/06 00:21:18;;;;;;;8.63;4.68;;;;;;;;;;5049297;28;20492;-70
2023/05/06 00:23:43;;;;;;;10.02;5.53;;;;;;;;;;5043762;28;20025;-71
2023/05/06 00:26:09;;;;;;;10.97;5.50;;;;;;;;;;5044349;28;20040;-69
2023/05/06 00:28:34;;;;;;;11.98;5.60;;;;;;;;;;5041372;28;20121;-73
2023/05/06 00:30:59;;;;;;;9.23;5.33;;;;;;;;;;5045693;28;20492;-73
2023/05/06 00:33:25;;;;;;;9.98;5.25;;;;;;;;;;5041301;28;20017;-69
2023/05/06 00:35:50;;;;;;;9.85;5.50;;;;;;;;;;5044784;28;20075;-69
2023/05/06 00:38:16;;;;;;;11.65;6.05;;;;;;;;;;5050365;28;20030;-70
2023/05/06 00:40:41;;;;;;;13.13;5.30;;;;;;;;;;5042948;28;20029;-69
2023/05/06 00:43:06;;;;;;;11.37;6.30;;;;;;;;;;5048775;28;20523;-70
2023/05/06 00:45:31;;;;;;;11.57;6.90;;;;;;;;;;5039413;28;20572;-70
2023/05/06 00:47:57;;;;;;;12.07;6.38;;;;;;;;;;5046350;28;20021;-70
2023/05/06 00:50:23;;;;;;;13.82;5.95;;;;;;;;;;5047324;28;20155;-70
2023/05/06 00:52:48;;;;;;;13.45;6.20;;;;;;;;;;5044657;28;20033;-71
2023/05/06 00:55:14;;;;;;;8.93;5.65;;;;;;;;;;5045407;28;20147;-73
2023/05/06 00:57:39;;;;;;;10.23;6.13;;;;;;;;;;5050699;28;20024;-71
2023/05/06 01:00:06;;;;;;;11.00;6.10;;;;;;;;;;5045505;28;20029;-70
2023/05/06 01:02:31;;;;;;;;;;;;;;;;;;5049953;28;20025;-76
2023/05/06 01:04:57;;;;;;;12.75;7.07;;;;;;;;;;5040274;28;19916;-70
2023/05/06 01:07:22;;;;;;;11.70;7.20;;;;;;;;;;5048414;28;20033;-70
2023/05/06 01:10:02;;;;;;;13.05;7.45;;;;;;;;;;5049703;28;20497;-69
2023/05/06 01:12:38;;;;;;;13.20;6.20;;;;;;;;;;5042382;28;20028;-68
2023/05/06 01:15:15;;;;;;;12.38;6.80;;;;;;;;;;5038254;28;20112;-70
2023/05/06 01:17:42;;;;;;;10.80;6.28;;;;;;;;;;5046090;28;20064;-70
2023/05/06 01:20:10;;;;;;;11.75;7.80;;;;;;;;;;5041067;28;20029;-71
2023/05/06 01:22:36;;;;;;;13.70;7.15;;;;;;;;;;5044466;28;20022;-69
2023/05/06 01:25:01;;;;;;;13.18;7.88;;;;;;;;;;5048990;28;20086;-70
2023/05/06 01:27:26;;;;;;;16.20;7.50;;;;;;;;;;5043011;28;20028;-69
2023/05/06 01:32:39;;;;;;;10.40;6.85;;;;;;;;;;5249875;22;20118;-64
2023/05/06 01:35:20;;;;;;;12.00;6.53;;;;;;;;;;5024457;28;20048;-64
2023/05/06 01:38:04;;;;;;;12.18;6.93;;;;;;;;;;5022793;28;20096;-65
2023/05/06 01:40:31;;;;;;;12.75;7.43;;;;;;;;;;5020839;28;20025;-65
2023/05/06 01:42:58;;;;;;;12.32;7.65;;;;;;;;;;5013222;28;20017;-64
2023/05/06 01:45:26;;;;;;;11.75;7.05;;;;;;;;;;5008675;28;20089;-64
2023/05/06 01:47:51;;;;;;;12.13;7.63;;;;;;;;;;5007909;28;20041;-63
2023/05/06 01:50:16;;;;;;;12.77;7.17;;;;;;;;;;5003206;28;20034;-64
2023/05/06 01:52:41;;;;;;;13.03;7.73;;;;;;;;;;5016481;28;20021;-64
2023/05/06 01:55:07;;;;;;;12.27;7.60;;;;;;;;;;5014693;28;20053;-65
2023/05/06 01:57:33;;;;;;;13.73;8.13;;;;;;;;;;4999593;28;20041;-63
2023/05/06 01:59:58;;;;;;;13.32;7.28;;;;;;;;;;5007938;28;20481;-63
2023/05/06 02:02:23;;;;;;;14.25;8.13;;;;;;;;;;5010656;28;20033;-63
2023/05/06 02:04:49;;;;;;;11.90;7.75;;;;;;;;;;5010524;28;20093;-62
2023/05/06 02:07:14;;;;;;;12.45;8.43;;;;;;;;;;5002520;28;20030;-64
2023/05/06 02:09:39;;;;;;;13.77;8.70;;;;;;;;;;5009886;28;20026;-63
2023/05/06 02:12:04;;;;;;;14.53;8.93;;;;;;;;;;4995726;28;20029;-62
2023/05/06 02:14:30;;;;;;;15.90;9.48;;;;;;;;;;5021579;28;20091;-62
2023/05/06 02:16:55;;;;;;;17.85;10.25;;;;;;;;;;5003874;28;20063;-63
2023/05/06 02:19:20;;;;;;;13.20;8.53;;;;;;;;;;5003716;28;20489;-63
2023/05/06 02:21:45;;;;;;;15.48;8.23;;;;;;;;;;5004330;28;20026;-62
2023/05/06 02:24:10;;;;;;;18.77;9.05;;;;;;;;;;5010913;28;20128;-63
2023/05/06 02:26:35;;;;;;;17.98;11.15;;;;;;;;;;5004422;28;20045;-63
2023/05/06 02:29:00;;;;;;;16.63;9.57;;;;;;;;;;5004726;28;20034;-63
2023/05/06 02:31:26;;;;;;;15.45;9.70;;;;;;;;;;5003680;28;20117;-63
2023/05/06 02:33:51;;;;;;;18.05;10.32;;;;;;;;;;5018222;28;20025;-63
2023/05/06 02:36:16;;;;;;;12.95;8.88;;;;;;;;;;5000217;28;20037;-63
2023/05/06 02:38:41;;;;;;;16.07;8.60;;;;;;;;;;5007648;28;20512;-64
2023/05/06 02:41:06;;;;;;;13.55;8.15;;;;;;;;;;5004147;28;20038;-64
2023/05/06 02:43:31;;;;;;;12.80;8.50;;;;;;;;;;5007074;28;20021;-64
2023/05/06 02:45:57;;;;;;;11.57;8.00;;;;;;;;;;4997413;28;20028;-63
2023/05/06 02:48:22;;;;;;;12.95;7.65;;;;;;;;;;5001470;28;20444;-64
2023/05/06 02:50:47;;;;;;;15.27;8.07;;;;;;;;;;5001701;28;20036;-64
2023/05/06 02:53:12;;;;;;;16.15;8.70;;;;;;;;;;5000523;28;20047;-63
2023/05/06 02:55:38;;;;;;;14.73;8.30;;;;;;;;;;5007304;28;20030;-63
2023/05/06 02:58:03;;;;;;;11.90;8.20;;;;;;;;;;5000662;28;20045;-63
2023/05/06 03:00:28;;;;;;;12.15;7.65;;;;;;;;;;5011279;28;20097;-63
2023/05/06 03:02:53;;;;;;;14.20;7.63;;;;;;;;;;4996766;28;20033;-63
2023/05/06 03:05:18;;;;;;;15.02;7.63;;;;;;;;;;5011900;28;20053;-63
2023/05/06 03:07:44;;;;;;;12.53;7.37;;;;;;;;;;5007914;28;20025;-63
2023/05/06 03:10:09;;;;;;;11.45;7.32;;;;;;;;;;5007472;28;20022;-63
2023/05/06 03:12:34;;;;;;;12.60;7.85;;;;;;;;;;5016165;28;20044;-63
2023/05/06 03:15:00;;;;;;;11.77;7.43;;;;;;;;;;5010528;28;20025;-62
2023/05/06 03:17:25;;;;;;;14.25;7.80;;;;;;;;;;5009186;28;20508;-62
2023/05/06 03:19:50;;;;;;;11.60;7.17;;;;;;;;;;5006951;28;20036;-64
2023/05/06 03:22:16;;;;;;;12.43;7.82;;;;;;;;;;5002042;28;20816;-63
2023/05/06 03:24:41;;;;;;;13.15;7.85;;;;;;;;;;5017440;28;20021;-62
2023/05/06 03:27:06;;;;;;;11.93;7.30;;;;;;;;;;5010098;28;20492;-63
2023/05/06 03:29:31;;;;;;;12.77;8.13;;;;;;;;;;5008648;28;20072;-63
2023/05/06 03:31:56;;;;;;;13.68;8.00;;;;;;;;;;4995873;28;20030;-63
2023/05/06 03:34:21;;;;;;;12.15;7.57;;;;;;;;;;5022059;28;20064;-62
2023/05/06 03:36:46;;;;;;;11.07;6.97;;;;;;;;;;4998917;28;20030;-62
2023/05/06 03:39:12;;;;;;;13.13;7.50;;;;;;;;;;5011315;28;20544;-62
2023/05/06 03:41:37;;;;;;;12.57;8.02;;;;;;;;;;5011490;28;20038;-63
2023/05/06 03:44:02;;;;;;;13.45;8.75;;;;;;;;;;5006342;28;20102;-63
2023/05/06 03:46:27;;;;;;;11.75;7.30;;;;;;;;;;5005888;28;20507;-63
2023/05/06 03:48:52;;;;;;;16.38;10.15;;;;;;;;;;5004854;28;20025;-62
2023/05/06 03:51:17;;;;;;;13.33;7.83;;;;;;;;;;4998838;28;20109;-62
2023/05/06 03:53:42;;;;;;;13.57;8.03;;;;;;;;;;5010890;28;20021;-63
2023/05/06 03:56:08;;;;;;;12.20;7.38;;;;;;;;;;5004017;28;20045;-63
2023/05/06 03:58:33;;;;;;;16.60;8.50;;;;;;;;;;5015177;28;20481;-64
2023/05/06 04:00:59;;;;;;;14.80;8.52;;;;;;;;;;5014734;28;20384;-64
2023/05/06 04:03:24;;;;;;;;;;;;;;;;;;5017054;28;21140;-64
2023/05/06 04:05:50;;;;;;;11.68;8.30;;;;;;;;;;5007347;28;20392;-63
2023/05/06 04:08:16;;;;;;;12.63;7.13;;;;;;;;;;5005091;28;20034;-64
2023/05/06 04:10:41;;;;;;;13.23;8.73;;;;;;;;;;5015565;28;20024;-63
2023/05/06 04:13:06;;;;;;;13.93;8.02;;;;;;;;;;5018501;28;20022;-63
2023/05/06 04:15:33;;;;;;;21.98;8.93;;;;;;;;;;5008425;28;20156;-63
2023/05/06 04:17:58;;;;;;;15.52;9.25;;;;;;;;;;5008422;28;20047;-62
2023/05/06 04:20:23;;;;;;;11.68;7.65;;;;;;;;;;5000732;28;20034;-63
2023/05/06 04:22:48;;;;;;;12.55;6.80;;;;;;;;;;4999768;28;20817;-62
2023/05/06 04:25:14;;;;;;;12.32;7.18;;;;;;;;;;5003224;28;20018;-62
2023/05/06 04:27:40;;;;;;;13.20;7.60;;;;;;;;;;5007504;28;20364;-63
2023/05/06 04:30:05;;;;;;;13.18;7.40;;;;;;;;;;4998179;28;20149;-63
2023/05/06 04:32:30;;;;;;;13.52;8.48;;;;;;;;;;5007674;28;20029;-62
2023/05/06 04:34:56;;;;;;;14.07;8.43;;;;;;;;;;4998852;28;20022;-64
2023/05/06 04:37:21;;;;;;;12.67;7.53;;;;;;;;;;5003142;28;20058;-63
2023/05/06 04:39:46;;;;;;;11.07;7.10;;;;;;;;;;5006823;28;20081;-63
2023/05/06 04:42:15;;;;;;;10.20;6.82;;;;;;;;;;5005285;28;20064;-64
2023/05/06 04:44:41;;;;;;;13.80;7.90;;;;;;;;;;5007631;28;20370;-64
2023/05/06 04:47:06;;;;;;;11.70;7.50;;;;;;;;;;5011867;28;20112;-63
2023/05/06 04:49:31;;;;;;;11.97;6.70;;;;;;;;;;5008332;28;20029;-62
2023/05/06 04:51:56;;;;;;;12.40;7.05;;;;;;;;;;5012099;28;20080;-63
2023/05/06 04:54:22;;;;;;;11.10;6.95;;;;;;;;;;5006333;28;20077;-63
2023/05/06 04:56:47;;;;;;;10.73;7.67;;;;;;;;;;5005788;28;20029;-63
2023/05/06 04:59:12;;;;;;;13.15;7.78;;;;;;;;;;5007911;28;20480;-64
2023/05/06 05:01:37;;;;;;;10.98;6.95;;;;;;;;;;5015019;28;20029;-64
2023/05/06 05:04:02;;;;;;;10.85;6.55;;;;;;;;;;5012982;28;20397;-63
2023/05/06 05:06:27;;;;;;;14.35;7.75;;;;;;;;;;5000592;28;20033;-64
2023/05/06 05:08:52;;;;;;;10.85;6.97;;;;;;;;;;5008017;28;20049;-63
2023/05/06 05:11:18;;;;;;;12.52;7.60;;;;;;;;;;5005830;28;20393;-64
2023/05/06 05:13:43;;;;;;;11.83;7.73;;;;;;;;;;5000548;28;20092;-63
2023/05/06 05:16:08;;;;;;;12.35;7.72;;;;;;;;;;4999198;28;20081;-64
2023/05/06 05:18:33;;;;;;;14.10;8.07;;;;;;;;;;4991474;28;20084;-64
2023/05/06 05:20:58;;;;;;;11.93;7.33;;;;;;;;;;5007673;28;20026;-63
2023/05/06 05:23:23;;;;;;;10.93;6.68;;;;;;;;;;5018705;28;20105;-63
2023/05/06 05:25:49;;;;;;;11.43;7.30;;;;;;;;;;5010606;28;20048;-63
2023/05/06 05:28:14;;;;;;;10.50;7.23;;;;;;;;;;5008956;28;20030;-63
2023/05/06 05:30:39;;;;;;;11.90;6.90;;;;;;;;;;5010638;28;20511;-61
2023/05/06 05:33:04;;;;;;;13.88;8.98;;;;;;;;;;5006944;28;20456;-63
2023/05/06 05:35:30;;;;;;;12.40;7.53;;;;;;;;;;5002661;28;20172;-63
2023/05/06 05:37:55;;;;;;;11.20;7.35;;;;;;;;;;5005148;28;20447;-64
2023/05/06 05:40:20;;;;;;;11.02;7.18;;;;;;;;;;5007393;28;20027;-63
2023/05/06 05:42:45;;;;;;;12.00;8.20;;;;;;;;;;5011199;28;20018;-62
2023/05/06 05:45:11;;;;;;;11.90;7.53;;;;;;;;;;5009882;28;20463;-63
2023/05/06 05:47:36;;;;;;;12.97;8.23;;;;;;;;;;5008761;28;20021;-63
2023/05/06 05:50:01;;;;;;;11.70;7.57;;;;;;;;;;5006168;28;20177;-62
2023/05/06 05:52:26;;;;;;;11.05;7.45;;;;;;;;;;5009014;28;20099;-63
2023/05/06 05:54:51;;;;;;;13.20;7.97;;;;;;;;;;5003628;28;20034;-62
2023/05/06 05:57:16;;;;;;;13.02;8.02;;;;;;;;;;5000366;28;20153;-63
2023/05/06 05:59:41;;;;;;;13.88;8.25;;;;;;;;;;5004354;28;20077;-64
2023/05/06 06:02:07;;;;;;;13.00;7.80;;;;;;;;;;5002792;28;20018;-63
2023/05/06 06:04:32;;;;;;;12.32;8.00;;;;;;;;;;5005196;28;20042;-62
2023/05/06 06:06:57;;;;;;;12.50;8.53;;;;;;;;;;4995108;28;20164;-63
2023/05/06 06:09:22;;;;;;;10.32;7.32;;;;;;;;;;4997778;28;20155;-63
2023/05/06 06:11:48;;;;;;;11.10;7.87;;;;;;;;;;5006949;28;20018;-62
2023/05/06 06:14:13;;;;;;;12.87;8.33;;;;;;;;;;4998364;28;20882;-62
2023/05/06 06:16:38;;;;;;;13.75;8.98;;;;;;;;;;5000719;28;20709;-62
2023/05/06 06:19:03;;;;;;;16.47;11.57;;;;;;;;;;4998287;28;20414;-63
2023/05/06 06:21:28;;;;;;;18.98;12.88;;;;;;;;;;4988905;28;20481;-64
2023/05/06 06:23:54;;;;;;;17.83;12.10;;;;;;;;;;4992751;28;20030;-62
2023/05/06 06:26:20;;;;;;;20.17;11.20;;;;;;;;;;5003039;28;20457;-63
2023/05/06 06:28:45;;;;;;;18.52;11.13;;;;;;;;;;5004329;28;20014;-63
2023/05/06 06:31:10;;;;;;;18.98;12.13;;;;;;;;;;4991111;28;20032;-62
2023/05/06 06:33:35;;;;;;;17.03;11.57;;;;;;;;;;4999280;28;20494;-62
2023/05/06 06:36:00;;;;;;;19.85;10.93;;;;;;;;;;4992476;28;20829;-62
2023/05/06 06:38:26;;;;;;;16.77;11.20;;;;;;;;;;4997642;28;20475;-62
2023/05/06 06:40:51;;;;;;;15.13;10.30;;;;;;;;;;5003892;28;20479;-63
2023/05/06 06:43:18;;;;;;;13.85;9.90;;;;;;;;;;5001637;28;20057;-64
2023/05/06 06:45:45;;;;;;;16.02;10.88;;;;;;;;;;5004817;28;20396;-63
2023/05/06 06:48:10;;;;;;;16.63;10.63;;;;;;;;;;4994879;28;20817;-63
2023/05/06 06:50:36;;;;;;;17.10;11.02;;;;;;;;;;5000473;28;20055;-63
2023/05/06 06:53:01;;;;;;;15.95;10.55;;;;;;;;;;4997223;28;20056;-62
2023/05/06 06:55:26;;;;;;;15.10;10.68;;;;;;;;;;5001555;28;20116;-62
2023/05/06 06:57:51;;;;;;;15.50;10.23;;;;;;;;;;5015361;28;20025;-62
2023/05/06 07:00:16;;;;;;;15.10;9.82;;;;;;;;;;5003717;28;20068;-62
2023/05/06 07:02:41;;;;;;;15.43;10.33;;;;;;;;;;5003002;28;20033;-64
2023/05/06 07:05:07;;;;;;;15.80;11.00;;;;;;;;;;5000318;28;20025;-64
2023/05/06 07:07:32;;;;;;;19.63;10.27;;;;;;;;;;5016817;28;20124;-64
2023/05/06 07:09:58;;;;;;;15.33;10.17;;;;;;;;;;5024235;28;20543;-63
2023/05/06 07:12:25;;;;;;;15.30;10.68;;;;;;;;;;5014186;28;20022;-63
2023/05/06 07:14:50;;;;;;;15.15;9.55;;;;;;;;;;5001790;28;20064;-64
2023/05/06 07:17:15;;;;;;;16.08;9.18;;;;;;;;;;4998026;28;20068;-63
2023/05/06 07:19:40;;;;;;;18.85;10.18;;;;;;;;;;5016697;28;20025;-64
2023/05/06 07:22:06;;;;;;;13.27;9.73;;;;;;;;;;5012086;28;20030;-62
2023/05/06 07:24:31;;;;;;;13.50;8.90;;;;;;;;;;5015961;28;20045;-63
2023/05/06 07:26:57;;;;;;;15.83;9.67;;;;;;;;;;5021677;28;20014;-63
2023/05/06 07:29:22;;;;;;;13.82;8.82;;;;;;;;;;5011738;28;20555;-63
2023/05/06 07:31:47;;;;;;;16.07;9.77;;;;;;;;;;5018409;28;20472;-63
2023/05/06 07:34:12;;;;;;;14.13;9.38;;;;;;;;;;5010026;28;20029;-64
2023/05/06 07:36:39;;;;;;;15.88;9.27;;;;;;;;;;5025986;28;20567;-64
2023/05/06 07:39:08;;;;;;;15.45;9.95;;;;;;;;;;5017647;28;20396;-65
2023/05/06 07:41:33;;;;;;;13.00;9.13;;;;;;;;;;5008534;28;20017;-66
2023/05/06 07:43:58;;;;;;;17.40;9.23;;;;;;;;;;5010057;28;20492;-66
2023/05/06 07:46:23;;;;;;;16.50;10.53;;;;;;;;;;5024377;28;20021;-65
2023/05/06 07:48:48;;;;;;;16.63;10.68;;;;;;;;;;5009611;28;20026;-66
2023/05/06 07:51:14;;;;;;;14.77;10.68;;;;;;;;;;5004752;28;20470;-65
2023/05/06 07:53:40;;;;;;;16.70;12.27;;;;;;;;;;5012745;28;20495;-65
2023/05/06 07:56:05;;;;;;;16.73;11.37;;;;;;;;;;5021070;28;20030;-66
2023/05/06 07:58:30;;;;;;;15.37;11.90;;;;;;;;;;5018319;28;20070;-64
2023/05/06 08:00:55;;;;;;;20.60;13.67;;;;;;;;;;5002427;28;20045;-65
2023/05/06 08:03:20;;;;;;;18.17;13.57;;;;;;;;;;5011488;28;20536;-65
2023/05/06 08:05:46;;;;;;;17.48;13.40;;;;;;;;;;5026547;28;20112;-65
2023/05/06 08:08:11;;;;;;;17.10;13.55;;;;;;;;;;5004324;28;20018;-64
2023/05/06 08:10:36;;;;;;;19.47;15.30;;;;;;;;;;5018643;28;20155;-65
2023/05/06 08:13:02;;;;;;;18.77;14.40;;;;;;;;;;5024717;28;20017;-64
2023/05/06 08:15:27;;;;;;;20.98;15.45;;;;;;;;;;5032585;28;20018;-65
2023/05/06 08:17:52;;;;;;;21.35;16.27;;;;;;;;;;5007877;28;20034;-65
2023/05/06 08:20:17;;;;;;;18.67;14.30;;;;;;;;;;5004513;28;20571;-64
2023/05/06 08:22:42;;;;;;;19.17;14.75;;;;;;;;;;5003925;28;20029;-64
2023/05/06 08:25:07;;;;;;;20.73;13.83;;;;;;;;;;5011911;28;20025;-63
2023/05/06 08:27:33;;;;;;;18.95;13.60;;;;;;;;;;5010272;28;20137;-63
2023/05/06 08:29:58;;;;;;;19.70;14.20;;;;;;;;;;5011780;28;20014;-63
2023/05/06 08:32:23;;;;;;;21.57;12.93;;;;;;;;;;5011507;28;20358;-63
2023/05/06 08:34:48;;;;;;;20.30;13.53;;;;;;;;;;5012539;28;20026;-63
2023/05/06 08:37:13;;;;;;;20.30;13.20;;;;;;;;;;5001708;28;20010;-65
2023/05/06 08:39:38;;;;;;;18.38;13.60;;;;;;;;;;5011921;28;20118;-64
2023/05/06 08:42:04;;;;;;;19.63;13.93;;;;;;;;;;5011770;28;20528;-65
2023/05/06 08:44:30;;;;;;;21.20;12.80;;;;;;;;;;5022487;28;20024;-63
2023/05/06 08:46:55;;;;;;;20.40;13.50;;;;;;;;;;5018910;28;20093;-63
2023/05/06 08:49:20;;;;;;;20.87;13.63;;;;;;;;;;5010671;28;20481;-63
2023/05/06 08:51:47;;;;;;;19.80;13.70;;;;;;;;;;5009224;28;21074;-64
2023/05/06 08:54:12;;;;;;;22.25;14.25;;;;;;;;;;5027366;28;20380;-64
2023/05/06 08:56:41;;;;;;;22.13;14.63;;;;;;;;;;5027327;28;20034;-64
2023/05/06 08:59:08;;;;;;;19.48;13.43;;;;;;;;;;5012087;28;20029;-64
2023/05/06 09:01:33;;;;;;;19.63;13.13;;;;;;;;;;4991043;28;20037;-64
2023/05/06 09:04:00;;;;;;;20.40;14.23;;;;;;;;;;4992171;28;20026;-64
2023/05/06 09:06:26;;;;;;;20.67;13.43;;;;;;;;;;4996756;28;20109;-64
2023/05/06 09:08:51;;;;;;;21.98;14.13;;;;;;;;;;5006527;28;20013;-64
2023/05/06 09:11:17;;;;;;;21.93;14.90;;;;;;;;;;5011283;28;20022;-63
2023/05/06 09:13:42;;;;;;;21.45;14.18;;;;;;;;;;5012077;28;20037;-64
2023/05/06 09:16:08;;;;;;;22.42;14.82;;;;;;;;;;5011743;28;20018;-64
2023/05/06 09:18:35;;;;;;;23.75;14.45;;;;;;;;;;5009860;28;20080;-65
2023/05/06 09:21:02;;;;;;;23.85;14.05;;;;;;;;;;5016861;28;20075;-65
2023/05/06 09:23:28;;;;;;;21.90;15.35;;;;;;;;;;5030984;28;20106;-63
2023/05/06 09:25:53;;;;;;;25.80;14.23;;;;;;;;;;5019919;28;20042;-64
2023/05/06 09:28:18;;;;;;;25.92;16.08;;;;;;;;;;5002925;28;20029;-63
2023/05/06 09:30:45;;;;;;;25.42;14.57;;;;;;;;;;5010974;28;20105;-64
2023/05/06 09:33:10;;;;;;;25.92;15.57;;;;;;;;;;5010665;28;20042;-65
2023/05/06 09:35:37;;;;;;;24.55;14.52;;;;;;;;;;5015609;28;20064;-63
2023/05/06 09:38:02;;;;;;;22.58;14.05;;;;;;;;;;5013954;28;20100;-64
2023/05/06 09:40:28;;;;;;;22.17;14.07;;;;;;;;;;5010311;28;20117;-64
2023/05/06 09:42:54;;;;;;;24.67;13.90;;;;;;;;;;5011027;28;20022;-64
2023/05/06 09:45:20;;;;;;;21.95;13.50;;;;;;;;;;5011619;28;20093;-64
2023/05/06 09:47:45;;;;;;;23.63;14.32;;;;;;;;;;5000884;28;20564;-64
2023/05/06 09:50:12;;;;;;;24.27;14.50;;;;;;;;;;4997624;28;20026;-65
2023/05/06 09:52:37;;;;;;;23.13;15.10;;;;;;;;;;5004913;28;20053;-64
2023/05/06 09:55:02;;;;;;;22.77;15.20;;;;;;;;;;5007184;28;20052;-62
2023/05/06 09:57:29;;;;;;;25.15;15.25;;;;;;;;;;5007608;28;20101;-64
2023/05/06 09:59:56;;;;;;;23.65;14.40;;;;;;;;;;5005659;28;20052;-63
2023/05/06 10:02:21;;;;;;;25.13;14.23;;;;;;;;;;5011049;28;20436;-63
2023/05/06 10:04:47;;;;;;;21.58;12.98;;;;;;;;;;5018698;28;20021;-64
2023/05/06 10:07:13;;;;;;;21.88;13.00;;;;;;;;;;5002814;28;20128;-64
2023/05/06 10:09:39;;;;;;;24.45;13.20;;;;;;;;;;5002116;28;20038;-63
2023/05/06 10:12:05;;;;;;;21.08;12.57;;;;;;;;;;5002847;28;20022;-63
2023/05/06 10:14:30;;;;;;;23.65;14.55;;;;;;;;;;5004985;28;20038;-63
2023/05/06 10:16:56;;;;;;;22.25;13.70;;;;;;;;;;5005738;28;20053;-63
2023/05/06 10:19:23;;;;;;;22.60;13.63;;;;;;;;;;5004692;28;20037;-64
2023/05/06 10:21:50;;;;;;;19.80;12.45;;;;;;;;;;5008151;28;20018;-64
2023/05/06 10:24:17;;;;;;;19.23;13.30;;;;;;;;;;5006692;28;20030;-64
2023/05/06 10:26:43;;;;;;;24.23;12.98;;;;;;;;;;5007126;28;22032;-63
2023/05/06 10:29:09;;;;;;;21.35;13.07;;;;;;;;;;5000131;28;20102;-64
2023/05/06 10:31:37;;;;;;;19.70;13.02;;;;;;;;;;5010004;28;20018;-65
2023/05/06 10:34:03;;;;;;;21.50;13.63;;;;;;;;;;5008405;28;20515;-64
2023/05/06 10:36:30;;;;;;;20.10;12.13;;;;;;;;;;5006595;28;20049;-64
2023/05/06 10:38:59;;;;;;;20.45;13.07;;;;;;;;;;4999300;28;20104;-64
2023/05/06 10:41:26;;;;;;;22.10;13.43;;;;;;;;;;4999711;28;20026;-64
2023/05/06 10:43:55;;;;;;;21.60;12.48;;;;;;;;;;5003514;28;20076;-64
2023/05/06 10:46:21;;;;;;;20.67;12.85;;;;;;;;;;5026408;28;20480;-64
2023/05/06 10:49:09;;;;;;;18.63;12.70;;;;;;;;;;5016691;28;20076;-64
2023/05/06 10:51:35;;;;;;;18.35;11.82;;;;;;;;;;5005927;28;20028;-64
2023/05/06 10:54:05;;;;;;;18.17;12.07;;;;;;;;;;5016633;28;20546;-64
2023/05/06 10:56:35;;;;;;;19.60;12.13;;;;;;;;;;5029538;28;20079;-64
2023/05/06 10:59:07;;;;;;;23.38;12.43;;;;;;;;;;5006143;28;20041;-64
2023/05/06 11:01:34;;;;;;;18.42;11.35;;;;;;;;;;5012083;28;20009;-64
2023/05/06 11:04:08;;;;;;;17.60;11.55;;;;;;;;;;5010603;28;20029;-64
2023/05/06 11:06:41;;;;;;;17.42;10.63;;;;;;;;;;5013898;28;20480;-64
2023/05/06 11:09:15;;;;;;;18.45;10.68;;;;;;;;;;5009021;28;20030;-64
2023/05/06 11:11:47;;;;;;;18.02;9.98;;;;;;;;;;5015992;28;20516;-64
2023/05/06 11:14:14;;;;;;;15.45;9.88;;;;;;;;;;4997812;28;20076;-64
2023/05/06 11:16:39;;;;;;;;;;;;;;;;;;5002057;28;20014;-64
2023/05/06 11:19:04;;;;;;;15.68;9.90;;;;;;;;;;5014269;28;20387;-63
2023/05/06 11:21:29;;;;;;;15.27;10.15;;;;;;;;;;5013216;28;20106;-63
2023/05/06 11:23:57;;;;;;;15.75;10.02;;;;;;;;;;5004626;28;20026;-63
2023/05/06 11:26:23;;;;;;;16.85;9.90;;;;;;;;;;5000374;28;20026;-64
2023/05/06 11:28:49;;;;;;;14.05;9.50;;;;;;;;;;5014030;28;20056;-63
2023/05/06 11:31:15;;;;;;;19.40;10.35;;;;;;;;;;4999162;28;20026;-64
2023/05/06 11:33:50;;;;;;;16.85;9.77;;;;;;;;;;5007429;28;20048;-64
2023/05/06 11:36:16;;;;;;;14.98;8.80;;;;;;;;;;4992565;28;20022;-65
2023/05/06 11:38:42;;;;;;;13.77;8.70;;;;;;;;;;4999683;28;20050;-64
2023/05/06 11:41:07;;;;;;;12.48;8.57;;;;;;;;;;5014067;28;20052;-63
2023/05/06 11:43:32;;;;;;;14.20;8.20;;;;;;;;;;4996764;28;20017;-63
2023/05/06 11:45:57;;;;;;;15.60;8.75;;;;;;;;;;5000605;28;20026;-63
2023/05/06 11:48:23;;;;;;;15.87;8.93;;;;;;;;;;4998870;28;20160;-64
2023/05/06 11:50:48;;;;;;;14.47;8.47;;;;;;;;;;5004081;28;20029;-63
2023/05/06 11:53:15;;;;;;;14.88;8.55;;;;;;;;;;5006852;28;20467;-63
2023/05/06 11:55:41;;;;;;;15.38;8.45;;;;;;;;;;5002915;28;20037;-63
2023/05/06 11:58:11;;;;;;;11.68;7.57;;;;;;;;;;5006810;28;20156;-64
2023/05/06 12:00:36;;;;;;;14.07;8.18;;;;;;;;;;5003258;28;20037;-64
2023/05/06 12:03:02;;;;;;;12.43;7.43;;;;;;;;;;5003665;28;20010;-63
2023/05/06 12:05:28;;;;;;;10.85;6.78;;;;;;;;;;5002135;28;20050;-62
2023/05/06 12:07:53;;;;;;;11.32;7.18;;;;;;;;;;4992699;28;20030;-65
2023/05/06 12:10:19;;;;;;;12.07;7.13;;;;;;;;;;4995685;28;20104;-64
2023/05/06 12:12:44;;;;;;;11.45;7.40;;;;;;;;;;5003064;28;20022;-65
2023/05/06 12:15:10;;;;;;;12.50;7.43;;;;;;;;;;5006811;28;20050;-65
2023/05/06 12:17:35;;;;;;;12.00;7.65;;;;;;;;;;4994992;28;20037;-65
2023/05/06 12:20:01;;;;;;;11.20;7.10;;;;;;;;;;5012478;28;20018;-64
2023/05/06 12:22:26;;;;;;;11.38;7.03;;;;;;;;;;4994325;28;20041;-65
2023/05/06 12:24:52;;;;;;;12.70;7.10;;;;;;;;;;5005591;28;20014;-63
2023/05/06 12:27:28;;;;;;;12.05;7.10;;;;;;;;;;4996282;28;20034;-63
2023/05/06 12:29:54;;;;;;;11.27;6.43;;;;;;;;;;5001138;28;20018;-63
2023/05/06 12:32:19;;;;;;;12.43;7.00;;;;;;;;;;4997894;28;20478;-64
2023/05/06 12:34:44;;;;;;;14.63;8.53;;;;;;;;;;4995350;28;20049;-65
2023/05/06 12:37:09;;;;;;;13.73;8.00;;;;;;;;;;4995470;28;20828;-64
2023/05/06 12:39:36;;;;;;;15.17;9.33;;;;;;;;;;5005070;28;20026;-66
2023/05/06 12:42:02;;;;;;;15.48;9.52;;;;;;;;;;5003315;28;20468;-65
2023/05/06 12:44:35;;;;;;;14.50;9.85;;;;;;;;;;5003606;28;20022;-65
2023/05/06 12:47:01;;;;;;;13.95;8.50;;;;;;;;;;4991410;28;20019;-66
2023/05/06 12:49:26;;;;;;;14.77;9.25;;;;;;;;;;4999792;28;20041;-65
2023/05/06 12:52:07;;;;;;;14.20;8.80;;;;;;;;;;5000683;28;20575;-64
2023/05/06 12:54:33;;;;;;;15.85;9.25;;;;;;;;;;4998235;28;20022;-66
2023/05/06 12:56:58;;;;;;;13.40;8.77;;;;;;;;;;5001932;28;20033;-65
2023/05/06 12:59:24;;;;;;;15.80;9.18;;;;;;;;;;4993880;28;20034;-63
2023/05/06 13:01:49;;;;;;;11.23;7.70;;;;;;;;;;4993584;28;20529;-64
2023/05/06 13:04:14;;;;;;;15.52;9.73;;;;;;;;;;5008499;28;20025;-64
2023/05/06 13:06:39;;;;;;;14.73;8.47;;;;;;;;;;5000824;28;20069;-63
2023/05/06 13:09:05;;;;;;;13.27;9.03;;;;;;;;;;5002160;28;20032;-64
2023/05/06 13:11:30;;;;;;;15.40;8.60;;;;;;;;;;5004273;28;20075;-63
2023/05/06 13:13:55;;;;;;;14.40;8.70;;;;;;;;;;5003788;28;20030;-63
2023/05/06 13:16:20;;;;;;;12.60;8.30;;;;;;;;;;5001987;28;20504;-64
2023/05/06 13:18:46;;;;;;;12.00;7.97;;;;;;;;;;5002453;28;20029;-64
2023/05/06 13:21:12;;;;;;;13.02;7.60;;;;;;;;;;5017340;28;20393;-63
2023/05/06 13:23:42;;;;;;;13.35;8.10;;;;;;;;;;5011114;28;20409;-64
2023/05/06 13:26:07;;;;;;;12.75;8.45;;;;;;;;;;5015688;28;20025;-65
2023/05/06 13:28:32;;;;;;;10.88;7.82;;;;;;;;;;5006652;28;20026;-65
2023/05/06 13:30:57;;;;;;;13.57;7.85;;;;;;;;;;5001176;28;20022;-65
2023/05/06 13:33:23;;;;;;;13.98;8.05;;;;;;;;;;5007472;28;20052;-64
2023/05/06 13:35:48;;;;;;;14.18;9.73;;;;;;;;;;4997148;28;20033;-65
2023/05/06 13:38:13;;;;;;;12.67;7.60;;;;;;;;;;5001097;28;20105;-65
2023/05/06 13:40:38;;;;;;;13.40;8.40;;;;;;;;;;5004053;28;20503;-64
2023/05/06 13:43:03;;;;;;;13.77;8.73;;;;;;;;;;5010740;28;20022;-64
2023/05/06 13:45:28;;;;;;;15.23;8.88;;;;;;;;;;5026409;28;20052;-64
2023/05/06 13:47:54;;;;;;;12.23;7.45;;;;;;;;;;5012214;28;20021;-64
2023/05/06 13:50:19;;;;;;;15.93;8.83;;;;;;;;;;4996403;28;20107;-64
2023/05/06 13:52:44;;;;;;;16.67;8.77;;;;;;;;;;5007680;28;20024;-64
2023/05/06 13:55:09;;;;;;;15.60;9.33;;;;;;;;;;5011275;28;20033;-64
2023/05/06 13:57:34;;;;;;;16.10;9.57;;;;;;;;;;5005709;28;20018;-63
2023/05/06 14:00:00;;;;;;;16.70;10.50;;;;;;;;;;5011634;28;20485;-64
2023/05/06 14:02:25;;;;;;;13.63;8.60;;;;;;;;;;5005526;28;20137;-63
2023/05/06 14:04:50;;;;;;;18.13;9.77;;;;;;;;;;4995746;28;20033;-63
2023/05/06 14:07:15;;;;;;;18.83;9.50;;;;;;;;;;4998744;28;20030;-64
2023/05/06 14:09:40;;;;;;;16.75;9.90;;;;;;;;;;5004121;28;20026;-63
2023/05/06 14:12:06;;;;;;;16.42;9.55;;;;;;;;;;5013336;28;20103;-64
2023/05/06 14:14:31;;;;;;;17.13;10.10;;;;;;;;;;5006519;28;20014;-65
2023/05/06 14:16:56;;;;;;;20.80;10.55;;;;;;;;;;5014622;28;20022;-64
2023/05/06 14:19:22;;;;;;;18.80;10.20;;;;;;;;;;5009372;28;20033;-66
2023/05/06 14:21:47;;;;;;;15.52;9.88;;;;;;;;;;5015082;28;20021;-65